This is the latest recevied weather packets stored in our database for station/object KE5SXT-2. If no packets are shown the sender has not sent any weather packets the latest 10 day(s).
| Time | Temp. | Humidity | Pressure | Rain* | Wind** | Luminosity | Snow |
|---|---|---|---|---|---|---|---|
| 1777515622 | 22.22° C | 51% | 1011 hPa | 0 mm | - | - | - |
| 1777514447 | 22.22° C | 50% | 1011.1 hPa | 0 mm | - | - | - |
| 1777512622 | 22.78° C | 49% | 1010.4 hPa | 0 mm | - | - | - |
| 1777511425 | 23.33° C | 48% | 1011 hPa | 0 mm | - | - | - |
| 1777509671 | 23.89° C | 47% | 1011 hPa | 0 mm | - | - | - |
| 1777508421 | 25° C | 46% | 1011 hPa | 0 mm | - | - | - |
| 1777507247 | 25° C | 44% | 1011.1 hPa | 0 mm | - | - | - |
| 1777506621 | 25° C | 45% | 1011.5 hPa | 0 mm | - | - | - |
| 1777504821 | 25.56° C | 44% | 1011.4 hPa | 0 mm | - | - | - |
| 1777503021 | 26.67° C | 44% | 1011 hPa | 0 mm | - | - | - |
| 1777502422 | 26.67° C | 42% | 1011.3 hPa | 0 mm | - | - | - |
| 1777501821 | 26.67° C | 42% | 1011.4 hPa | 0 mm | - | - | - |
| 1777501221 | 27.22° C | 42% | 1011.2 hPa | 0 mm | - | - | - |
| 1777495821 | 27.22° C | 43% | 1012.1 hPa | 0 mm | - | - | - |
| 1777494621 | 27.22° C | 44% | 1012.5 hPa | 0 mm | - | - | - |
| 1777493446 | 27.22° C | 43% | 1012.8 hPa | 0 mm | - | - | - |
| 1777492246 | 27.22° C | 44% | 1013 hPa | 0 mm | - | - | - |
| 1777486821 | 26.67° C | 45% | 1013.8 hPa | 0 mm | - | - | - |
| 1777483221 | 25° C | 51% | 1014.7 hPa | 0 mm | - | - | - |
| 1777481421 | 24.44° C | 53% | 1014.6 hPa | 0 mm | - | - | - |
| 1777474245 | 21.67° C | 55% | 1015.2 hPa | 0 mm | - | - | - |
| 1777473020 | 21.11° C | 55% | 1015.1 hPa | 0 mm | - | - | - |
| 1777468845 | 21.67° C | 58% | 1015.2 hPa | 0 mm | - | - | - |
| 1777468221 | 22.22° C | 59% | 1014.9 hPa | 0 mm | - | - | - |
| 1777461022 | 22.22° C | 38% | 1013.6 hPa | 0 mm | - | - | - |
* Rain latest hour (hover to see other rain measurements)
** Current wind speed in m/s (hover to see current wind gust speed)